Time;durP1;ratioP1;P1;durP2;ratioP2;P2;SDS_P1;SDS_P2;PMS_P1;PMS_P2;Temp;Humidity;BMP_temperature;BMP_pressure;BME280_temperature;BME280_humidity;BME280_pressure;Samples;Min_cycle;Max_cycle;Signal;HPM_P1;HPM_P2
2022/12/31 00:02:22;;;;;;;2.47;1.48;;;;;;;16.66;64.69;100246.06;4968532;28;123990;-68
2022/12/31 00:04:50;;;;;;;2.28;1.40;;;;;;;16.66;64.81;100240.72;4966481;28;123781;-68
2022/12/31 00:07:16;;;;;;;2.42;1.27;;;;;;;16.65;64.67;100239.00;4961416;28;110453;-68
2022/12/31 00:09:44;;;;;;;1.75;1.35;;;;;;;16.66;65.10;100240.72;4960574;28;109831;-68
2022/12/31 00:12:11;;;;;;;2.83;1.25;;;;;;;16.65;64.96;100233.66;4961381;28;124066;-69
2022/12/31 00:14:38;;;;;;;3.45;1.50;;;;;;;16.66;65.05;100238.03;4964762;28;124634;-68
2022/12/31 00:17:05;;;;;;;1.63;1.17;;;;;;;16.67;64.91;100231.69;4964240;28;109771;-68
2022/12/31 00:19:32;;;;;;;1.90;1.30;;;;;;;16.66;65.19;100240.72;4963975;28;109665;-68
2022/12/31 00:21:59;;;;;;;1.90;1.30;;;;;;;16.68;64.92;100236.09;4937268;28;124797;-68
2022/12/31 00:24:29;;;;;;;1.83;1.20;;;;;;;16.68;65.05;100233.41;4960907;28;123989;-68
2022/12/31 00:26:56;;;;;;;1.60;1.10;;;;;;;16.68;65.10;100238.78;4968017;28;108248;-68
2022/12/31 00:29:24;;;;;;;1.52;1.15;;;;;;;16.67;65.17;100237.06;4970072;28;108624;-68
2022/12/31 00:31:51;;;;;;;1.92;0.90;;;;;;;16.68;65.30;100238.78;4969174;28;124358;-68
2022/12/31 00:34:18;;;;;;;1.50;1.10;;;;;;;16.68;65.14;100234.25;4970807;28;123759;-68
2022/12/31 00:36:45;;;;;;;1.52;1.15;;;;;;;16.70;65.28;100242.16;4946341;28;109980;-68
2022/12/31 00:39:12;;;;;;;2.95;1.80;;;;;;;16.70;65.35;100231.47;4969179;28;108323;-68
2022/12/31 00:41:39;;;;;;;1.75;1.20;;;;;;;16.71;65.33;100243.88;4965320;28;123895;-68
2022/12/31 00:44:09;;;;;;;1.40;1.15;;;;;;;16.71;65.55;100233.19;4967895;28;123858;-68
2022/12/31 00:46:36;;;;;;;2.00;1.30;;;;;;;16.72;65.45;100235.72;4964078;28;108943;-68
2022/12/31 00:49:02;;;;;;;3.13;1.48;;;;;;;16.74;65.65;100227.56;4964642;28;109697;-68
2022/12/31 00:51:29;;;;;;;2.72;1.50;;;;;;;16.77;65.63;100226.50;4958471;28;124253;-68
2022/12/31 00:53:57;;;;;;;1.90;1.38;;;;;;;16.77;65.56;100235.34;4963989;28;124250;-68
2022/12/31 00:56:28;;;;;;;3.25;1.40;;;;;;;16.78;65.59;100234.38;4967028;28;110102;-68
2022/12/31 00:58:57;;;;;;;3.05;1.50;;;;;;;16.78;65.50;100223.66;4965316;28;109873;-68
2022/12/31 01:01:27;;;;;;;2.13;1.48;;;;;;;16.79;65.62;100225.38;4963785;28;124705;-68
2022/12/31 01:03:58;;;;;;;4.72;1.77;;;;;;;16.79;65.65;100225.38;4968819;28;123305;-68
2022/12/31 01:06:25;;;;;;;1.80;1.40;;;;;;;16.80;65.68;100224.41;4958317;28;108971;-68
2022/12/31 01:08:54;;;;;;;5.20;1.65;;;;;;;16.80;65.76;100232.44;4968191;28;109004;-68
2022/12/31 01:11:22;;;;;;;2.15;1.63;;;;;;;16.82;65.79;100240.31;4959586;28;124701;-68
2022/12/31 01:13:55;;;;;;;1.60;1.50;;;;;;;16.81;65.94;100236.81;4957841;28;124533;-69
2022/12/31 01:16:29;;;;;;;1.67;1.30;;;;;;;16.80;65.95;100243.13;4960648;28;109330;-69
2022/12/31 01:18:58;;;;;;;1.75;1.33;;;;;;;16.82;65.82;100208.22;4964193;28;108690;-68
2022/12/31 01:21:26;;;;;;;2.05;1.27;;;;;;;16.81;66.06;100217.25;4962762;28;124439;-68
2022/12/31 01:23:53;;;;;;;1.40;0.80;;;;;;;16.80;65.63;100232.44;4962379;28;124315;-68
2022/12/31 01:26:21;;;;;;;1.10;0.80;;;;;;;16.77;65.57;100243.38;4948600;28;108031;-69
2022/12/31 01:28:48;;;;;;;4.18;1.00;;;;;;;16.76;65.50;100230.97;4963906;28;108811;-68
2022/12/31 01:31:17;;;;;;;2.30;0.90;;;;;;;16.74;65.73;100211.53;4969187;28;124068;-69
2022/12/31 01:33:45;;;;;;;1.02;0.63;;;;;;;16.72;65.55;100202.78;4970276;28;124558;-69
2022/12/31 01:36:15;;;;;;;1.25;0.73;;;;;;;16.72;65.77;100192.09;4969402;28;108862;-69
2022/12/31 01:38:51;;;;;;;0.63;0.60;;;;;;;16.70;66.04;100204.72;4960410;28;108733;-69
2022/12/31 01:41:27;;;;;;;1.48;0.57;;;;;;;16.69;65.67;100219.09;4959711;28;124211;-69
2022/12/31 01:44:02;;;;;;;1.35;0.70;;;;;;;16.68;65.50;100220.06;4959865;28;124492;-69
2022/12/31 01:46:39;;;;;;;0.63;0.50;;;;;;;16.66;65.74;100224.66;4960847;28;110414;-69
2022/12/31 01:49:17;;;;;;;0.60;0.50;;;;;;;16.66;65.80;100230.03;4966682;28;110206;-68
2022/12/31 01:51:49;;;;;;;1.05;0.50;;;;;;;16.66;65.68;100230.03;4960932;28;123988;-69
2022/12/31 01:54:19;;;;;;;1.23;0.60;;;;;;;16.65;65.68;100233.66;4962891;28;124233;-69
2022/12/31 01:56:50;;;;;;;0.57;0.50;;;;;;;16.64;65.76;100231.97;4963160;28;109165;-69
2022/12/31 01:59:19;;;;;;;0.60;0.60;;;;;;;16.62;65.73;100228.56;4964733;28;109265;-69
2022/12/31 02:01:51;;;;;;;0.98;0.50;;;;;;;16.61;65.75;100234.88;4964336;28;124107;-69
2022/12/31 02:04:21;;;;;;;0.90;0.60;;;;;;;16.60;65.75;100230.53;4969885;28;124046;-69
2022/12/31 02:07:04;;;;;;;1.10;0.60;;;;;;;16.59;65.86;100247.53;4965103;28;109381;-69
2022/12/31 02:09:32;;;;;;;0.80;0.52;;;;;;;16.58;65.94;100269.91;4964872;28;108714;-69
2022/12/31 02:11:59;;;;;;;0.75;0.60;;;;;;;16.58;65.87;100291.28;4960392;28;123923;-69
2022/12/31 02:14:30;;;;;;;1.13;0.60;;;;;;;16.54;65.99;100312.91;4960676;28;124670;-69
2022/12/31 02:17:06;;;;;;;1.80;0.50;;;;;;;16.52;66.06;100325.53;4966974;28;109172;-69
2022/12/31 02:20:12;;;;;;;0.60;0.60;;;;;;;16.47;65.97;100287.63;4961153;28;109460;-69
2022/12/31 02:23:16;;;;;;;0.88;0.50;;;;;;;16.46;66.05;100245.84;4942131;28;124229;-69
2022/12/31 02:25:43;;;;;;;0.45;0.45;;;;;;;16.45;65.96;100251.31;4963340;28;123823;-69
2022/12/31 02:28:29;;;;;;;1.23;0.60;;;;;;;16.44;66.07;100255.78;4959143;28;109237;-69
2022/12/31 02:31:07;;;;;;;0.85;0.55;;;;;;;16.44;66.19;100258.44;4965024;28;108964;-69
2022/12/31 02:33:40;;;;;;;0.65;0.50;;;;;;;16.46;66.21;100256.53;4959700;28;124636;-69
2022/12/31 02:36:21;;;;;;;0.82;0.60;;;;;;;16.47;66.21;100268.91;4963212;28;124116;-68
2022/12/31 02:38:49;;;;;;;0.63;0.60;;;;;;;16.49;66.12;100272.31;4967338;28;108245;-69
2022/12/31 02:44:32;;;;;;;0.80;0.60;;;;;;;16.49;65.99;100287.50;4960668;28;123848;-69
2022/12/31 02:47:02;;;;;;;;;;;;;;;16.45;65.79;100286.91;4962922;28;123909;-69
2022/12/31 02:49:44;;;;;;;1.08;0.68;;;;;;;16.44;65.85;100285.19;4966378;28;108665;-69
2022/12/31 02:52:30;;;;;;;0.82;0.70;;;;;;;16.44;66.02;100284.34;4964228;28;108823;-69
2022/12/31 02:55:22;;;;;;;0.65;0.65;;;;;;;16.44;66.12;100274.50;4964857;28;122805;-69
2022/12/31 02:58:11;;;;;;;0.60;0.50;;;;;;;16.43;66.10;100272.81;4963268;28;125753;-69
2022/12/31 03:03:39;;;;;;;0.75;0.60;;;;;;;16.41;65.93;100295.28;4969717;28;108895;-69
2022/12/31 03:06:08;;;;;;;1.65;0.70;;;;;;;16.39;66.00;100298.06;4961252;28;123162;-69
2022/12/31 03:09:11;;;;;;;0.60;0.60;;;;;;;16.38;66.13;100274.97;4963134;28;123413;-69
2022/12/31 03:14:08;;;;;;;1.48;1.00;;;;;;;16.38;66.20;100274.97;4958659;28;109433;-69
2022/12/31 03:16:35;;;;;;;1.20;1.00;;;;;;;16.40;66.03;100278.38;4969108;28;124618;-69
2022/12/31 03:27:19;;;;;;;1.17;1.08;;;;;;;16.40;66.17;100262.34;4957614;28;123755;-69
2022/12/31 03:29:46;;;;;;;1.40;1.10;;;;;;;16.40;66.25;100257.00;4962644;28;124032;-69
2022/12/31 03:32:14;;;;;;;1.52;1.02;;;;;;;16.42;66.21;100259.56;4957223;28;109864;-68
2022/12/31 03:34:41;;;;;;;1.25;1.13;;;;;;;16.43;66.26;100256.78;4954824;28;109867;-69
2022/12/31 03:37:08;;;;;;;1.17;0.98;;;;;;;16.43;66.22;100251.41;4955218;28;124256;-69
2022/12/31 03:39:35;;;;;;;1.63;1.15;;;;;;;16.43;66.30;100251.41;4957934;28;123537;-68
2022/12/31 03:42:02;;;;;;;1.25;1.00;;;;;;;16.42;66.30;100255.06;4965348;28;109415;-69
2022/12/31 03:44:29;;;;;;;1.73;0.90;;;;;;;16.43;66.22;100243.41;4969252;28;109400;-69
2022/12/31 03:46:56;;;;;;;1.10;0.98;;;;;;;16.43;66.37;100234.53;4966302;28;123961;-69
2022/12/31 03:49:23;;;;;;;1.17;1.00;;;;;;;16.44;66.22;100225.53;4963535;28;123777;-68
2022/12/31 03:51:51;;;;;;;1.40;0.90;;;;;;;16.42;66.33;100233.66;4960846;28;109573;-69
2022/12/31 03:54:18;;;;;;;1.02;0.82;;;;;;;16.40;66.33;100230.28;4968644;28;109073;-69
2022/12/31 03:56:45;;;;;;;1.00;0.80;;;;;;;16.39;66.42;100233.94;4964614;28;123985;-69
2022/12/31 03:59:15;;;;;;;1.17;0.88;;;;;;;16.38;66.34;100232.22;4967501;28;124403;-69
2022/12/31 04:01:42;;;;;;;1.10;0.98;;;;;;;16.38;66.62;100226.88;4967667;28;109449;-69
2022/12/31 04:04:09;;;;;;;1.38;1.00;;;;;;;16.38;66.47;100234.03;4968583;28;108640;-69
2022/12/31 04:06:36;;;;;;;0.98;0.80;;;;;;;16.39;66.43;100228.59;4969101;28;124305;-69
2022/12/31 04:09:03;;;;;;;1.15;0.90;;;;;;;16.38;66.57;100226.88;4962457;28;123764;-68
2022/12/31 04:11:30;;;;;;;1.17;0.80;;;;;;;16.38;66.63;100216.19;4968498;28;111019;-69
2022/12/31 04:13:58;;;;;;;1.00;0.75;;;;;;;16.37;66.45;100214.50;4969798;28;108585;-69
2022/12/31 04:16:25;;;;;;;0.70;0.60;;;;;;;16.38;66.65;100221.53;4969460;28;124044;-69
2022/12/31 04:18:52;;;;;;;1.17;0.70;;;;;;;16.39;66.54;100217.91;4949799;28;123373;-69
2022/12/31 04:21:19;;;;;;;1.08;0.73;;;;;;;16.38;66.50;100221.53;4945273;28;109141;-69
2022/12/31 04:23:46;;;;;;;0.98;0.77;;;;;;;16.39;66.43;100217.91;4967709;28;110013;-69
2022/12/31 04:26:13;;;;;;;0.80;0.70;;;;;;;16.39;66.79;100217.91;4960821;28;123058;-69
2022/12/31 04:28:40;;;;;;;1.00;0.90;;;;;;;16.38;66.67;100216.19;4966925;28;123821;-69
2022/12/31 04:31:07;;;;;;;0.88;0.70;;;;;;;16.39;66.48;100223.25;4932484;28;108782;-69
2022/12/31 04:33:34;;;;;;;0.80;0.70;;;;;;;16.39;66.45;100228.59;4970784;28;109239;-68
2022/12/31 04:36:02;;;;;;;1.08;0.70;;;;;;;16.40;66.49;100240.97;4961794;28;123973;-68
2022/12/31 04:38:29;;;;;;;1.58;0.80;;;;;;;16.39;66.61;100249.97;4966378;28;124576;-69
2022/12/31 04:43:53;;;;;;;1.02;0.90;;;;;;;16.36;66.58;100244.84;4963614;28;109736;-69
2022/12/31 04:46:26;;;;;;;1.05;0.90;;;;;;;16.34;66.76;100239.63;4953625;28;125036;-68
2022/12/31 04:48:54;;;;;;;1.30;1.00;;;;;;;16.33;66.56;100231.72;4961334;28;124156;-68
2022/12/31 04:51:22;;;;;;;1.40;1.20;;;;;;;16.31;66.66;100231.00;4948364;28;108423;-68
2022/12/31 04:53:49;;;;;;;1.20;0.95;;;;;;;16.27;66.33;100221.53;4964410;28;108083;-68
2022/12/31 04:56:17;;;;;;;1.10;1.00;;;;;;;16.24;66.50;100224.47;4964981;28;124435;-68
2022/12/31 04:58:44;;;;;;;1.38;1.00;;;;;;;16.24;66.42;100219.13;4963019;28;124576;-69
2022/12/31 05:01:12;;;;;;;1.17;1.00;;;;;;;16.22;66.30;100242.41;4964975;28;110531;-69
2022/12/31 05:03:40;;;;;;;1.40;1.10;;;;;;;16.20;66.38;100249.69;4960032;28;108989;-68
2022/12/31 05:06:11;;;;;;;1.67;1.10;;;;;;;16.18;66.40;100246.28;4968864;28;124003;-68
2022/12/31 05:08:38;;;;;;;1.23;1.08;;;;;;;16.15;66.25;100237.56;4962147;28;125084;-69
2022/12/31 05:11:05;;;;;;;2.42;1.15;;;;;;;16.17;66.33;100249.94;4961766;28;109309;-68
2022/12/31 05:13:32;;;;;;;1.30;0.90;;;;;;;16.14;66.47;100246.56;4965011;28;110734;-69
2022/12/31 05:16:01;;;;;;;1.27;1.05;;;;;;;16.17;66.68;100249.94;4959997;28;124693;-69
2022/12/31 05:18:29;;;;;;;2.20;1.02;;;;;;;16.18;66.71;100251.63;4968877;28;125126;-69
2022/12/31 05:20:56;;;;;;;2.72;1.30;;;;;;;16.21;67.01;100252.25;4971284;28;109113;-68
2022/12/31 05:23:24;;;;;;;1.98;1.20;;;;;;;16.26;67.08;100251.91;4950648;28;107908;-68
2022/12/31 05:25:51;;;;;;;3.15;1.38;;;;;;;16.30;67.23;100266.72;4966630;28;124277;-69
2022/12/31 05:28:19;;;;;;;1.83;1.30;;;;;;;16.33;67.17;100266.47;4966880;28;124172;-69
2022/12/31 05:30:50;;;;;;;1.90;1.10;;;;;;;16.35;67.28;100269.91;4966248;28;109489;-68
2022/12/31 05:33:17;;;;;;;1.65;1.13;;;;;;;16.38;67.34;100264.28;4966557;28;109949;-68
2022/12/31 05:35:45;;;;;;;1.30;1.05;;;;;;;16.42;67.52;100249.72;4969189;28;125187;-69
2022/12/31 05:38:12;;;;;;;1.95;0.90;;;;;;;16.48;67.62;100265.28;4965962;28;123024;-69
2022/12/31 05:40:39;;;;;;;3.13;0.88;;;;;;;16.54;67.52;100270.13;4960056;28;109868;-69
2022/12/31 05:43:06;;;;;;;2.58;0.80;;;;;;;16.61;67.61;100277.66;4963768;28;108877;-69
2022/12/31 05:45:33;;;;;;;2.67;1.00;;;;;;;16.67;67.76;100274.50;4960163;28;124290;-68
2022/12/31 05:48:00;;;;;;;1.20;1.00;;;;;;;16.74;67.80;100281.06;4968206;28;123853;-68
2022/12/31 05:50:27;;;;;;;1.63;0.88;;;;;;;16.78;67.55;100282.50;4969053;28;109839;-68
2022/12/31 05:52:55;;;;;;;2.42;0.80;;;;;;;16.82;67.83;100284.00;4963836;28;108981;-68
2022/12/31 05:55:23;;;;;;;2.70;0.90;;;;;;;16.85;67.71;100286.44;4964149;28;124145;-68
2022/12/31 05:57:50;;;;;;;1.17;0.77;;;;;;;16.86;67.69;100288.13;4967206;28;123831;-69
2022/12/31 06:00:17;;;;;;;1.85;0.85;;;;;;;16.90;67.59;100292.25;4969137;28;110753;-69
2022/12/31 06:02:44;;;;;;;2.85;0.90;;;;;;;16.92;67.70;100290.31;4965116;28;109304;-68
2022/12/31 06:05:11;;;;;;;3.05;1.10;;;;;;;16.95;67.53;100293.72;4964158;28;123772;-69
2022/12/31 06:07:38;;;;;;;3.10;1.00;;;;;;;16.98;67.56;100293.47;4968245;28;124540;-68
2022/12/31 06:10:06;;;;;;;2.05;1.00;;;;;;;16.98;67.56;100304.19;4966691;28;108435;-68
2022/12/31 06:12:34;;;;;;;2.72;1.00;;;;;;;17.01;67.62;100294.09;4961378;28;108518;-68
2022/12/31 06:15:01;;;;;;;2.33;0.75;;;;;;;17.04;67.84;100292.97;4961151;28;124414;-68
2022/12/31 06:17:31;;;;;;;1.50;0.73;;;;;;;17.07;67.78;100282.03;4961619;28;124130;-69
2022/12/31 06:19:58;;;;;;;3.58;0.68;;;;;;;17.10;67.85;100281.75;4962034;28;109823;-71
2022/12/31 06:22:25;;;;;;;2.40;0.70;;;;;;;17.15;67.89;100294.78;4965486;28;108678;-69
2022/12/31 06:24:53;;;;;;;2.30;0.70;;;;;;;17.21;67.96;100284.41;4962161;28;124831;-69
2022/12/31 06:27:20;;;;;;;2.53;0.75;;;;;;;17.24;67.92;100310.94;4963643;28;123911;-68
2022/12/31 06:29:47;;;;;;;2.95;0.80;;;;;;;17.29;67.96;100340.84;4966114;28;110313;-69
2022/12/31 06:32:14;;;;;;;2.88;0.90;;;;;;;17.31;67.76;100285.38;4963524;28;109128;-69
2022/12/31 06:34:41;;;;;;;2.92;0.90;;;;;;;17.34;67.54;100316.38;4955271;28;124391;-69
2022/12/31 06:37:09;;;;;;;2.45;1.00;;;;;;;17.35;67.43;100333.28;4932821;28;122767;-69
2022/12/31 06:39:36;;;;;;;3.70;1.20;;;;;;;17.34;67.47;100320.88;4964592;28;109062;-69
2022/12/31 06:42:03;;;;;;;1.80;0.93;;;;;;;17.31;67.37;100293.41;4964531;28;109319;-69
2022/12/31 06:44:30;;;;;;;1.88;0.90;;;;;;;17.31;67.45;100304.09;4962306;28;125188;-69
2022/12/31 06:46:57;;;;;;;2.03;0.85;;;;;;;17.30;67.48;100289.00;4962888;28;124444;-69
2022/12/31 06:49:24;;;;;;;2.60;1.10;;;;;;;17.32;67.72;100303.13;4966950;28;110322;-69
2022/12/31 06:51:51;;;;;;;2.00;1.23;;;;;;;17.34;67.57;100299.47;4966123;28;110644;-69
2022/12/31 06:54:18;;;;;;;2.90;1.20;;;;;;;17.36;67.51;100297.53;4961578;28;124659;-69
2022/12/31 06:56:46;;;;;;;3.10;0.85;;;;;;;17.40;67.50;100298.97;4961989;28;123729;-69
2022/12/31 06:59:27;;;;;;;3.33;0.70;;;;;;;17.44;67.43;100297.72;4963286;28;109457;-69
2022/12/31 07:01:57;;;;;;;3.17;0.70;;;;;;;17.50;67.42;100299.91;4963755;28;108968;-69
2022/12/31 07:04:46;;;;;;;2.08;0.60;;;;;;;17.58;67.28;100297.44;4958711;28;123954;-69
2022/12/31 07:07:34;;;;;;;1.10;0.60;;;;;;;17.65;67.22;100289.72;4966888;28;124458;-69
2022/12/31 07:10:14;;;;;;;2.92;0.52;;;;;;;17.71;67.06;100287.41;4964426;28;109446;-70
2022/12/31 07:12:59;;;;;;;1.58;0.65;;;;;;;17.80;66.73;100295.63;4961791;28;108776;-69
2022/12/31 07:15:29;;;;;;;;;;;;;;;17.85;67.02;100294.28;4962081;28;123459;-69
2022/12/31 07:18:24;;;;;;;2.67;0.70;;;;;;;17.95;66.55;100289.03;4968730;28;124107;-69
2022/12/31 07:20:51;;;;;;;2.33;0.80;;;;;;;18.05;66.58;100295.28;4938250;28;108223;-69
2022/12/31 07:23:19;;;;;;;3.28;0.70;;;;;;;18.13;66.32;100291.94;4958805;28;108428;-69
2022/12/31 07:25:58;;;;;;;2.00;0.63;;;;;;;18.19;65.84;100285.22;4966978;28;124706;-69
2022/12/31 07:29:10;;;;;;;3.58;0.70;;;;;;;18.26;65.87;100286.41;4961217;28;123612;-69
2022/12/31 07:32:00;;;;;;;3.60;0.90;;;;;;;18.31;65.38;100278.81;4965021;28;109169;-69
2022/12/31 07:34:35;;;;;;;1.98;0.63;;;;;;;18.38;65.27;100304.09;4969660;28;109106;-69
2022/12/31 07:37:21;;;;;;;5.00;0.85;;;;;;;18.43;65.29;100288.44;4968814;28;124562;-69
2022/12/31 07:40:07;;;;;;;;;;;;;;;18.47;65.51;100305.97;4965679;28;123943;-69
2022/12/31 07:42:42;;;;;;;2.63;0.70;;;;;;;18.53;65.09;100298.38;4963847;28;110099;-69
2022/12/31 07:45:15;;;;;;;;;;;;;;;18.55;65.22;100309.81;4959385;28;110858;-69
2022/12/31 07:47:45;;;;;;;2.97;0.60;;;;;;;18.62;64.87;100297.56;4960533;28;123682;-68
2022/12/31 07:50:17;;;;;;;4.70;0.80;;;;;;;18.67;64.67;100303.41;4966319;28;123638;-69
2022/12/31 07:52:45;;;;;;;2.92;0.80;;;;;;;18.70;64.43;100303.09;4962299;28;109769;-69
2022/12/31 07:55:12;;;;;;;1.58;0.90;;;;;;;18.76;64.35;100305.28;4959414;28;110007;-69
2022/12/31 07:57:56;;;;;;;2.40;0.80;;;;;;;18.78;63.95;100297.94;4959066;28;123800;-69
2022/12/31 08:00:25;;;;;;;5.03;0.90;;;;;;;18.82;63.97;100304.75;4967648;28;122855;-70
2022/12/31 08:03:04;;;;;;;2.03;0.63;;;;;;;18.85;63.71;100309.84;4950083;28;109412;-69
2022/12/31 08:05:37;;;;;;;4.03;1.20;;;;;;;18.90;63.56;100311.28;4962842;28;108101;-69
2022/12/31 08:08:16;;;;;;;2.05;0.70;;;;;;;18.92;63.52;100303.94;4964485;28;124085;-69
2022/12/31 08:10:43;;;;;;;3.00;0.82;;;;;;;18.91;63.46;100307.59;4963422;28;122751;-69
2022/12/31 08:13:11;;;;;;;2.88;1.00;;;;;;;18.89;63.29;100309.56;4962970;28;109556;-69
2022/12/31 08:15:39;;;;;;;0.98;0.65;;;;;;;18.86;63.28;100300.81;4969173;28;108513;-70
2022/12/31 08:18:07;;;;;;;2.95;0.70;;;;;;;18.83;63.26;100311.81;4959165;28;124031;-69
2022/12/31 08:20:44;;;;;;;3.90;0.80;;;;;;;18.82;63.56;100309.28;4962958;28;124366;-69
2022/12/31 08:23:31;;;;;;;1.63;0.60;;;;;;;18.80;63.24;100320.13;4956270;28;109818;-69
2022/12/31 08:26:28;;;;;;;1.75;0.63;;;;;;;18.79;63.23;100331.81;4966756;28;110051;-70
2022/12/31 08:29:29;;;;;;;2.40;0.70;;;;;;;18.78;63.21;100340.88;4966446;28;123172;-70
2022/12/31 08:32:07;;;;;;;2.92;0.63;;;;;;;18.76;63.09;100353.56;4953775;28;124565;-70
2022/12/31 08:34:44;;;;;;;3.70;0.70;;;;;;;18.76;63.40;100361.63;4966619;28;110229;-69
2022/12/31 08:37:19;;;;;;;1.33;0.60;;;;;;;18.74;63.31;100382.38;4949163;28;108217;-70
2022/12/31 08:40:22;;;;;;;2.78;0.80;;;;;;;18.73;63.26;100386.00;4956975;28;123892;-70
2022/12/31 08:43:14;;;;;;;1.98;0.73;;;;;;;18.74;63.41;100425.28;4953821;28;124196;-70
2022/12/31 08:45:46;;;;;;;1.73;0.60;;;;;;;18.74;63.21;100419.91;4963745;28;109453;-69
2022/12/31 08:48:32;;;;;;;1.40;0.60;;;;;;;18.77;63.08;100416.94;4956267;28;108967;-70
2022/12/31 08:50:59;;;;;;;1.40;0.68;;;;;;;18.79;63.04;100417.66;4961132;28;123851;-70
2022/12/31 08:53:26;;;;;;;2.58;0.50;;;;;;;18.83;62.97;100418.28;4962950;28;124666;-69
2022/12/31 08:56:01;;;;;;;2.05;0.82;;;;;;;18.86;62.94;100429.59;4950225;28;109669;-69
2022/12/31 08:58:39;;;;;;;1.70;0.80;;;;;;;18.91;62.80;100447.13;4944017;28;109243;-70
2022/12/31 09:01:07;;;;;;;1.42;0.65;;;;;;;18.95;62.54;100470.03;4959993;28;124443;-69
2022/12/31 09:04:01;;;;;;;2.67;0.80;;;;;;;18.97;62.67;100446.63;4950409;28;124609;-70
2022/12/31 09:06:47;;;;;;;3.10;0.85;;;;;;;18.95;62.66;100470.03;4953467;28;108350;-69
2022/12/31 09:09:26;;;;;;;2.05;0.60;;;;;;;18.89;62.56;100470.56;4952042;28;108986;-69
2022/12/31 09:12:21;;;;;;;2.60;0.70;;;;;;;18.86;62.53;100494.00;4952846;28;125443;-70
2022/12/31 09:15:01;;;;;;;1.50;0.60;;;;;;;18.84;62.66;100498.66;4964391;28;123073;-70
2022/12/31 09:17:40;;;;;;;3.03;0.80;;;;;;;18.85;62.54;100489.66;4957043;28;109135;-69
2022/12/31 09:20:15;;;;;;;2.97;0.65;;;;;;;18.86;62.39;100502.06;4969058;28;109901;-69
2022/12/31 09:22:42;;;;;;;2.90;0.80;;;;;;;18.88;62.52;100495.72;4951423;28;123481;-69
2022/12/31 09:25:15;;;;;;;5.13;1.55;;;;;;;18.92;62.23;100507.91;4952445;28;124443;-69
2022/12/31 09:27:42;;;;;;;2.22;0.77;;;;;;;18.95;62.28;100512.97;4957208;28;108989;-69
2022/12/31 09:30:12;;;;;;;3.95;0.85;;;;;;;18.98;62.23;100512.72;4956696;28;109983;-69
2022/12/31 09:32:44;;;;;;;2.95;0.70;;;;;;;19.00;62.15;100526.88;4953205;28;123806;-69
2022/12/31 09:35:33;;;;;;;2.80;0.90;;;;;;;19.00;62.19;100516.13;4952491;28;124224;-69
2022/12/31 09:38:21;;;;;;;2.30;0.77;;;;;;;19.00;62.22;100542.97;4974694;28;109181;-70
2022/12/31 09:41:00;;;;;;;3.17;0.68;;;;;;;18.98;62.37;100550.31;4971060;28;108834;-70
2022/12/31 09:43:33;;;;;;;1.27;0.70;;;;;;;18.95;62.41;100550.56;4977033;28;124676;-70
2022/12/31 09:46:13;;;;;;;3.75;0.80;;;;;;;18.85;62.48;100546.00;4970410;28;123042;-69
2022/12/31 09:48:50;;;;;;;2.08;0.60;;;;;;;18.79;62.67;100551.81;4951074;28;109539;-70
2022/12/31 09:51:30;;;;;;;2.55;0.82;;;;;;;18.70;62.98;100547.22;4966194;28;109264;-70
2022/12/31 09:54:12;;;;;;;3.20;0.85;;;;;;;18.63;63.27;100551.44;4964492;28;124400;-70
2022/12/31 09:57:11;;;;;;;3.00;0.88;;;;;;;18.54;63.24;100541.47;4951675;28;124001;-70
2022/12/31 10:00:03;;;;;;;2.20;0.90;;;;;;;18.51;63.60;100557.81;4952985;28;108202;-70
2022/12/31 10:02:46;;;;;;;2.85;0.80;;;;;;;18.47;63.62;100562.56;4966521;28;109574;-70
2022/12/31 10:05:30;;;;;;;2.13;0.77;;;;;;;18.44;63.85;100569.03;4937444;28;124332;-70
2022/12/31 10:08:14;;;;;;;2.22;0.90;;;;;;;18.44;63.79;100558.31;4952942;28;124688;-70
2022/12/31 10:10:57;;;;;;;2.05;0.73;;;;;;;18.44;63.92;100552.97;4971835;28;109897;-70
2022/12/31 10:13:39;;;;;;;2.78;0.90;;;;;;;18.44;64.17;100563.69;4948994;28;108528;-70
2022/12/31 10:16:20;;;;;;;3.67;0.95;;;;;;;18.44;64.18;100552.97;4941844;28;124258;-70
2022/12/31 10:19:16;;;;;;;4.07;1.02;;;;;;;18.46;64.14;100559.03;4965422;28;123795;-70
2022/12/31 10:22:21;;;;;;;2.35;0.77;;;;;;;18.48;64.05;100562.44;4952326;28;110230;-70
2022/12/31 10:25:26;;;;;;;4.22;1.00;;;;;;;18.49;64.02;100566.81;4952166;28;110451;-70
2022/12/31 10:28:25;;;;;;;3.38;1.00;;;;;;;18.49;64.00;100556.09;4950213;28;124701;-70
2022/12/31 10:31:14;;;;;;;4.80;1.00;;;;;;;18.52;64.00;100564.88;4938437;28;123594;-70
2022/12/31 10:33:51;;;;;;;3.25;1.00;;;;;;;18.54;63.99;100550.34;4952077;28;110168;-70
2022/12/31 10:36:33;;;;;;;3.53;0.88;;;;;;;18.57;63.86;100546.56;4948725;28;108868;-69
2022/12/31 10:39:17;;;;;;;3.10;0.82;;;;;;;18.63;63.85;100540.69;4951131;28;124220;-70
2022/12/31 10:42:09;;;;;;;3.95;0.73;;;;;;;18.66;63.94;100535.06;4951467;28;123775;-70
2022/12/31 10:45:28;;;;;;;2.35;0.90;;;;;;;18.72;63.85;100539.91;4952496;28;110509;-70
2022/12/31 10:48:27;;;;;;;3.78;0.90;;;;;;;18.75;63.66;100528.91;4952242;28;108875;-70
2022/12/31 10:51:06;;;;;;;3.05;1.00;;;;;;;18.79;63.63;100519.63;4933377;28;123533;-70
2022/12/31 10:53:52;;;;;;;3.72;1.00;;;;;;;18.83;63.53;100525.63;4961071;28;123819;-70
2022/12/31 10:57:13;;;;;;;3.70;0.88;;;;;;;18.85;63.38;100529.03;4961480;28;109529;-70
2022/12/31 11:00:20;;;;;;;2.83;0.75;;;;;;;18.88;63.42;100549.41;4939347;28;108710;-70
2022/12/31 11:03:18;;;;;;;4.32;1.08;;;;;;;18.90;63.31;100542.91;4961714;28;124518;-70
2022/12/31 11:06:13;;;;;;;3.67;1.00;;;;;;;18.95;63.14;100546.06;4963881;28;123722;-69
2022/12/31 11:08:59;;;;;;;;;;;;;;;18.96;63.31;100546.91;4955082;28;108516;-69
2022/12/31 11:12:02;;;;;;;2.20;1.00;;;;;;;19.02;63.13;100551.72;4953633;28;97160;-69
2022/12/31 11:14:47;;;;;;;3.03;0.90;;;;;;;19.05;63.13;100562.22;4950275;28;124011;-69
2022/12/31 11:17:29;;;;;;;2.13;0.98;;;;;;;19.08;62.88;100550.34;4949194;28;124188;-69
2022/12/31 11:20:28;;;;;;;4.28;0.88;;;;;;;19.13;63.07;100566.94;4947527;28;110454;-69
2022/12/31 11:23:06;;;;;;;3.60;0.82;;;;;;;19.16;62.70;100553.25;4950643;28;110242;-69
2022/12/31 11:25:46;;;;;;;2.97;1.08;;;;;;;19.19;62.35;100564.59;4950200;28;124218;-69
2022/12/31 11:28:19;;;;;;;4.20;1.02;;;;;;;19.24;62.32;100546.22;4948906;28;123797;-69
2022/12/31 11:31:11;;;;;;;2.58;0.98;;;;;;;19.29;62.27;100566.44;4968308;28;109233;-69
2022/12/31 11:34:27;;;;;;;3.35;0.90;;;;;;;19.34;62.03;100566.91;4953866;28;108169;-70
2022/12/31 11:37:09;;;;;;;3.67;0.88;;;;;;;19.38;62.00;100557.59;4935405;28;124816;-70
2022/12/31 11:40:01;;;;;;;4.65;1.15;;;;;;;19.42;61.90;100537.53;4947143;28;124428;-69
2022/12/31 11:42:55;;;;;;;2.25;0.80;;;;;;;19.46;61.70;100571.25;4945517;28;109062;-70
2022/12/31 11:45:47;;;;;;;3.63;1.30;;;;;;;19.50;61.35;100566.44;4944753;28;109229;-70
2022/12/31 11:48:32;;;;;;;2.33;0.95;;;;;;;19.53;61.07;100567.00;4951093;28;124658;-69
2022/12/31 11:51:01;;;;;;;4.78;1.40;;;;;;;19.55;60.93;100580.31;4946988;28;123041;-69
2022/12/31 11:53:37;;;;;;;4.10;1.00;;;;;;;19.57;60.66;100572.97;4951208;28;109269;-70
2022/12/31 11:56:27;;;;;;;4.13;1.10;;;;;;;19.57;60.52;100560.41;4949957;28;109005;-70
2022/12/31 11:58:55;;;;;;;5.75;1.58;;;;;;;19.61;60.47;100563.69;4947162;28;123551;-69
2022/12/31 12:01:35;;;;;;;2.50;1.20;;;;;;;19.61;60.09;100575.25;4950321;28;123673;-70
2022/12/31 12:04:02;;;;;;;4.75;1.08;;;;;;;19.62;59.93;100571.56;4962213;28;110416;-69
2022/12/31 12:06:31;;;;;;;3.78;1.05;;;;;;;19.64;59.87;100569.59;4949940;28;108473;-69
2022/12/31 12:09:04;;;;;;;2.90;1.13;;;;;;;19.65;59.77;100576.69;4950082;28;124905;-70
2022/12/31 12:11:36;;;;;;;5.65;1.38;;;;;;;19.66;59.67;100577.53;4950602;28;124510;-70
2022/12/31 12:14:30;;;;;;;2.88;0.93;;;;;;;19.65;59.88;100574.00;4949898;28;110090;-69
2022/12/31 12:16:58;;;;;;;2.55;1.08;;;;;;;19.65;59.67;100567.78;4950904;28;110022;-70